createdAt,value
2018-03-06T00:01:39.527Z,-1.40
2018-03-06T00:04:05.644Z,-1.60
2018-03-06T00:06:31.755Z,-1.60
2018-03-06T00:08:58.608Z,-1.70
2018-03-06T00:11:25.563Z,-1.80
2018-03-06T00:13:51.682Z,-1.80
2018-03-06T00:16:17.795Z,-1.90
2018-03-06T00:18:43.947Z,-2.00
2018-03-06T00:21:10.043Z,-2.10
2018-03-06T00:23:36.222Z,-2.10
2018-03-06T00:26:02.292Z,-2.10
2018-03-06T00:28:28.432Z,-2.30
2018-03-06T00:30:54.548Z,-2.30
2018-03-06T00:33:20.678Z,-2.30
2018-03-06T00:35:46.772Z,-2.20
2018-03-06T00:38:12.857Z,-2.20
2018-03-06T00:40:38.963Z,-2.30
2018-03-06T00:43:05.068Z,-2.20
2018-03-06T00:45:31.214Z,-2.20
2018-03-06T00:47:57.319Z,-2.20
2018-03-06T00:50:23.447Z,-2.20
2018-03-06T00:52:49.567Z,-2.20
2018-03-06T00:55:15.679Z,-2.20
2018-03-06T00:57:41.800Z,-2.30
2018-03-06T01:00:08.631Z,-2.30
2018-03-06T01:02:34.787Z,-2.40
2018-03-06T01:05:00.895Z,-2.40
2018-03-06T01:07:27.035Z,-2.40
2018-03-06T01:09:53.120Z,-2.40
2018-03-06T01:12:19.983Z,-2.40
2018-03-06T01:14:46.072Z,-2.50
2018-03-06T01:17:12.168Z,-2.50
2018-03-06T01:19:38.287Z,-2.40
2018-03-06T01:22:05.177Z,-2.50
2018-03-06T01:24:31.307Z,-2.50
2018-03-06T01:26:57.387Z,-2.50
2018-03-06T01:29:23.476Z,-2.50
2018-03-06T01:31:49.595Z,-2.60
2018-03-06T01:34:16.512Z,-2.60
2018-03-06T01:36:42.640Z,-2.60
2018-03-06T01:39:08.728Z,-2.50
2018-03-06T01:41:35.597Z,-2.80
2018-03-06T01:44:01.720Z,-2.80
2018-03-06T01:46:28.544Z,-2.80
2018-03-06T01:48:54.823Z,-2.80
2018-03-06T01:51:21.656Z,-2.90
2018-03-06T01:53:47.743Z,-2.90
2018-03-06T01:56:13.867Z,-2.90
2018-03-06T01:58:39.980Z,-2.90
2018-03-06T02:01:06.805Z,-2.80
2018-03-06T02:03:32.917Z,-2.80
2018-03-06T02:05:59.048Z,-2.90
2018-03-06T02:08:25.143Z,-3.00
2018-03-06T02:10:51.260Z,-3.00
2018-03-06T02:13:17.347Z,-3.00
2018-03-06T02:15:43.464Z,-3.10
2018-03-06T02:18:10.321Z,-3.10
2018-03-06T02:20:37.155Z,-3.00
2018-03-06T02:23:03.268Z,-3.10
2018-03-06T02:25:29.400Z,-3.00
2018-03-06T02:27:55.490Z,-2.90
2018-03-06T02:30:21.576Z,-3.00
2018-03-06T02:32:47.689Z,-3.00
2018-03-06T02:35:13.780Z,-3.10
2018-03-06T02:37:39.912Z,-3.10
2018-03-06T02:40:05.984Z,-3.10
2018-03-06T02:42:32.820Z,-3.20
2018-03-06T02:44:58.922Z,-3.30
2018-03-06T02:47:24.974Z,-3.20
2018-03-06T02:49:51.091Z,-3.20
2018-03-06T02:52:17.158Z,-3.20
2018-03-06T02:54:43.261Z,-3.30
2018-03-06T02:57:09.342Z,-3.30
2018-03-06T02:59:35.405Z,-3.30
2018-03-06T03:02:02.245Z,-3.30
2018-03-06T03:04:28.312Z,-3.40
2018-03-06T03:06:54.394Z,-3.40
2018-03-06T03:09:20.459Z,-3.40
2018-03-06T03:11:46.557Z,-3.50
2018-03-06T03:14:12.613Z,-3.50
2018-03-06T03:16:38.683Z,-3.50
2018-03-06T03:19:04.775Z,-3.50
2018-03-06T03:21:30.861Z,-3.60
2018-03-06T03:23:57.701Z,-3.60
2018-03-06T03:26:23.790Z,-3.60
2018-03-06T03:28:49.847Z,-3.60
2018-03-06T03:31:15.934Z,-3.60
2018-03-06T03:33:41.986Z,-3.70
2018-03-06T03:36:08.070Z,-3.70
2018-03-06T03:38:34.135Z,-3.70
2018-03-06T03:41:00.958Z,-3.70
2018-03-06T03:43:27.023Z,-3.70
2018-03-06T03:45:53.096Z,-3.70
2018-03-06T03:48:19.179Z,-3.70
2018-03-06T03:50:45.270Z,-3.70
2018-03-06T03:53:11.347Z,-3.70
2018-03-06T03:55:37.435Z,-3.70
2018-03-06T03:58:04.231Z,-3.70
2018-03-06T04:00:30.359Z,-3.70
2018-03-06T04:02:56.438Z,-3.70
2018-03-06T04:05:22.480Z,-3.70
2018-03-06T04:07:48.554Z,-3.80
2018-03-06T04:10:14.626Z,-3.80
2018-03-06T04:12:40.673Z,-3.80
2018-03-06T04:15:06.786Z,-3.80
2018-03-06T04:17:32.829Z,-3.80
2018-03-06T04:19:58.888Z,-3.80
2018-03-06T04:22:24.983Z,-3.90
2018-03-06T04:24:51.032Z,-3.90
2018-03-06T04:27:17.087Z,-3.90
2018-03-06T04:29:43.911Z,-4.00
2018-03-06T04:32:09.995Z,-4.00
2018-03-06T04:34:36.042Z,-4.00
2018-03-06T04:37:02.123Z,-4.10
2018-03-06T04:39:28.182Z,-4.10
2018-03-06T04:41:54.270Z,-4.10
2018-03-06T04:44:21.083Z,-4.10
2018-03-06T04:46:47.170Z,-4.10
2018-03-06T04:49:13.963Z,-4.00
2018-03-06T04:51:40.045Z,-4.00
2018-03-06T04:54:06.127Z,-4.00
2018-03-06T04:56:32.219Z,-4.00
2018-03-06T04:58:58.273Z,-4.10
2018-03-06T05:01:25.119Z,-4.10
2018-03-06T05:03:51.953Z,-4.10
2018-03-06T05:06:18.050Z,-4.10
2018-03-06T05:08:44.135Z,-4.10
2018-03-06T05:11:10.216Z,-4.10
2018-03-06T05:13:36.319Z,-4.10
2018-03-06T05:16:02.443Z,-4.10
2018-03-06T05:18:28.505Z,-4.10
2018-03-06T05:20:54.610Z,-4.10
2018-03-06T05:23:21.413Z,-4.20
2018-03-06T05:25:48.294Z,-4.20
2018-03-06T05:28:14.385Z,-4.20
2018-03-06T05:30:41.193Z,-4.30
2018-03-06T05:33:08.033Z,-4.30
2018-03-06T05:35:34.937Z,-4.40
2018-03-06T05:38:00.999Z,-4.40
2018-03-06T05:40:27.830Z,-4.40
2018-03-06T05:42:53.918Z,-4.40
2018-03-06T05:45:19.981Z,-4.40
2018-03-06T05:47:46.075Z,-4.40
2018-03-06T05:50:12.905Z,-4.40
2018-03-06T05:52:39.061Z,-4.40
2018-03-06T05:55:05.877Z,-4.50
2018-03-06T05:57:31.931Z,-4.50
2018-03-06T05:59:58.110Z,-4.50
2018-03-06T06:02:24.163Z,-4.50
2018-03-06T06:04:50.237Z,-4.50
2018-03-06T06:07:16.317Z,-4.50
2018-03-06T06:09:43.101Z,-4.40
2018-03-06T06:12:09.159Z,-4.40
2018-03-06T06:14:35.325Z,-4.40
2018-03-06T06:17:01.401Z,-4.40
2018-03-06T06:19:27.458Z,-4.30
2018-03-06T06:21:53.571Z,-4.30
2018-03-06T06:24:19.618Z,-4.20
2018-03-06T06:26:45.682Z,-4.20
2018-03-06T06:29:11.743Z,-4.10
2018-03-06T06:31:37.795Z,-4.00
2018-03-06T06:34:03.874Z,-3.90
2018-03-06T06:36:29.950Z,-3.90
2018-03-06T06:38:55.995Z,-3.80
2018-03-06T06:41:22.162Z,-3.80
2018-03-06T06:43:48.962Z,-3.60
2018-03-06T06:46:15.042Z,-3.60
2018-03-06T06:48:41.869Z,-3.40
2018-03-06T06:51:07.942Z,-3.40
2018-03-06T06:53:34.761Z,-3.20
2018-03-06T06:56:00.806Z,-3.20
2018-03-06T06:58:26.907Z,-3.20
2018-03-06T07:00:53.005Z,-3.00
2018-03-06T07:03:19.784Z,-2.90
2018-03-06T07:05:45.850Z,-2.80
2018-03-06T07:08:11.881Z,-2.70
2018-03-06T07:10:37.950Z,-2.60
2018-03-06T07:13:04.019Z,-2.50
2018-03-06T07:15:30.789Z,-2.30
2018-03-06T07:17:56.907Z,-2.30
2018-03-06T07:20:23.690Z,-2.00
2018-03-06T07:22:49.762Z,-2.00
2018-03-06T07:25:15.878Z,-1.80
2018-03-06T07:27:41.917Z,-1.70
2018-03-06T07:30:07.991Z,-1.50
2018-03-06T07:32:35.082Z,-1.40
2018-03-06T07:35:01.875Z,-1.10
2018-03-06T07:37:27.970Z,-1.20
2018-03-06T07:39:54.010Z,-1.10
2018-03-06T07:42:20.051Z,-1.00
2018-03-06T07:44:46.134Z,-0.80
2018-03-06T07:47:12.182Z,-0.70
2018-03-06T07:49:38.260Z,-0.60
2018-03-06T07:52:05.073Z,-0.40
2018-03-06T07:54:31.110Z,-0.40
2018-03-06T07:56:57.151Z,-0.20
2018-03-06T07:59:23.214Z,-0.20
2018-03-06T08:01:49.994Z,0.20
2018-03-06T08:04:16.053Z,0.20
2018-03-06T08:06:42.114Z,0.30
2018-03-06T08:09:08.199Z,0.40
2018-03-06T08:11:34.321Z,0.60
2018-03-06T08:14:01.120Z,0.80
2018-03-06T08:16:27.194Z,0.70
2018-03-06T08:18:53.251Z,1.00
2018-03-06T08:21:20.055Z,1.10
2018-03-06T08:23:46.158Z,1.10
2018-03-06T08:26:12.235Z,1.30
2018-03-06T08:28:39.070Z,1.50
2018-03-06T08:31:05.134Z,1.40
2018-03-06T08:33:31.183Z,1.50
2018-03-06T08:35:57.275Z,1.50
2018-03-06T08:38:23.331Z,1.70
2018-03-06T08:40:49.431Z,1.70
2018-03-06T08:43:16.261Z,1.90
2018-03-06T08:45:42.315Z,1.90
2018-03-06T08:48:09.139Z,2.20
2018-03-06T08:50:35.198Z,2.20
2018-03-06T08:53:01.297Z,2.30
2018-03-06T08:55:27.381Z,2.30
2018-03-06T08:57:54.189Z,2.40
2018-03-06T09:00:20.253Z,2.40
2018-03-06T09:02:46.327Z,2.30
2018-03-06T09:05:13.134Z,2.60
2018-03-06T09:07:39.205Z,2.60
2018-03-06T09:10:05.990Z,2.90
2018-03-06T09:12:32.077Z,2.90
2018-03-06T09:14:58.139Z,3.10
2018-03-06T09:17:24.973Z,3.30
2018-03-06T09:19:51.027Z,3.20
2018-03-06T09:22:17.841Z,3.30
2018-03-06T09:24:43.879Z,3.20
2018-03-06T09:27:09.949Z,3.20
2018-03-06T09:29:35.978Z,3.40
2018-03-06T09:32:02.058Z,3.50
2018-03-06T09:34:28.131Z,3.60
2018-03-06T09:36:54.296Z,3.60
2018-03-06T09:39:20.345Z,3.60
2018-03-06T09:41:47.145Z,3.50
2018-03-06T09:44:13.181Z,3.50
2018-03-06T09:46:39.241Z,3.60
2018-03-06T09:49:05.286Z,3.60
2018-03-06T09:51:31.328Z,3.90
2018-03-06T09:53:57.428Z,4.10
2018-03-06T09:56:23.462Z,4.00
2018-03-06T09:58:49.537Z,4.00
2018-03-06T10:01:15.585Z,3.90
2018-03-06T10:03:41.654Z,3.80
2018-03-06T10:06:08.478Z,3.80
2018-03-06T10:08:34.523Z,3.80
2018-03-06T10:11:00.570Z,3.70
2018-03-06T10:13:27.478Z,3.80
2018-03-06T10:15:53.518Z,3.70
2018-03-06T10:18:19.566Z,4.00
2018-03-06T10:20:45.647Z,4.20
2018-03-06T10:23:12.428Z,4.20
2018-03-06T10:25:38.551Z,4.20
2018-03-06T10:28:04.627Z,4.40
2018-03-06T10:30:30.739Z,4.40
2018-03-06T10:32:56.874Z,4.50
2018-03-06T10:35:23.039Z,4.60
2018-03-06T10:37:49.114Z,4.70
2018-03-06T10:40:15.155Z,4.70
2018-03-06T10:42:41.975Z,5.00
2018-03-06T10:45:08.016Z,4.90
2018-03-06T10:47:34.068Z,5.10
2018-03-06T10:50:00.143Z,5.20
2018-03-06T10:52:26.178Z,5.30
2018-03-06T10:54:52.313Z,5.10
2018-03-06T10:57:18.382Z,5.20
2018-03-06T10:59:44.447Z,5.00
2018-03-06T11:02:14.480Z,5.30
2018-03-06T11:04:40.667Z,5.50
2018-03-06T11:07:06.703Z,5.30
2018-03-06T11:09:32.767Z,5.50
2018-03-06T11:11:58.829Z,5.70
2018-03-06T11:14:24.894Z,5.90
2018-03-06T11:16:50.947Z,5.90
2018-03-06T11:19:16.990Z,6.20
2018-03-06T11:21:43.127Z,6.40
2018-03-06T11:24:09.169Z,6.50
2018-03-06T11:26:35.280Z,6.80
2018-03-06T11:29:02.167Z,7.00
2018-03-06T11:31:28.222Z,7.00
2018-03-06T11:33:54.295Z,6.90
2018-03-06T11:36:20.479Z,7.20
2018-03-06T11:38:46.578Z,7.20
2018-03-06T11:41:12.630Z,7.20
2018-03-06T11:43:39.471Z,7.40
2018-03-06T11:46:05.642Z,7.40
2018-03-06T11:48:31.689Z,7.50
2018-03-06T11:50:57.797Z,7.40
2018-03-06T11:53:24.619Z,7.60
2018-03-06T11:55:50.699Z,7.60
2018-03-06T11:58:16.854Z,7.70
2018-03-06T12:00:42.930Z,7.70
2018-03-06T12:03:08.991Z,7.90
2018-03-06T12:05:35.823Z,8.20
2018-03-06T12:08:01.895Z,8.20
2018-03-06T12:10:28.709Z,8.40
2018-03-06T12:12:54.754Z,8.40
2018-03-06T12:15:20.861Z,8.10
2018-03-06T12:17:46.955Z,8.20
2018-03-06T12:20:13.744Z,8.50
2018-03-06T12:22:39.826Z,8.50
2018-03-06T12:25:05.881Z,8.80
2018-03-06T12:27:32.765Z,9.00
2018-03-06T12:29:58.910Z,9.00
2018-03-06T12:32:25.011Z,9.20
2018-03-06T12:34:51.063Z,9.20
2018-03-06T12:37:17.865Z,9.20
2018-03-06T12:39:43.955Z,9.20
2018-03-06T12:42:10.775Z,9.10
2018-03-06T12:44:36.828Z,9.10
2018-03-06T12:47:02.909Z,9.10
2018-03-06T12:49:28.973Z,9.10
2018-03-06T12:51:55.010Z,9.10
2018-03-06T12:54:21.826Z,8.90
2018-03-06T12:56:47.985Z,8.80
2018-03-06T12:59:14.819Z,8.90
2018-03-06T13:01:40.879Z,8.90
2018-03-06T13:04:06.936Z,9.00
2018-03-06T13:06:33.028Z,9.00
2018-03-06T13:08:59.879Z,8.70
2018-03-06T13:11:26.687Z,8.50
2018-03-06T13:13:52.750Z,8.60
2018-03-06T13:16:18.913Z,8.70
2018-03-06T13:18:45.699Z,8.80
2018-03-06T13:21:11.765Z,8.80
2018-03-06T13:23:37.846Z,8.90
2018-03-06T13:26:03.890Z,8.80
2018-03-06T13:28:29.949Z,8.70
2018-03-06T13:30:56.035Z,8.70
2018-03-06T13:33:22.155Z,8.70
2018-03-06T13:35:48.159Z,8.50
2018-03-06T13:38:14.215Z,8.50
2018-03-06T13:40:40.298Z,8.50
2018-03-06T13:43:07.079Z,8.50
2018-03-06T13:45:33.158Z,8.50
2018-03-06T13:47:59.207Z,8.50
2018-03-06T13:50:25.278Z,8.50
2018-03-06T13:52:51.327Z,8.40
2018-03-06T13:55:17.415Z,8.30
2018-03-06T13:57:43.568Z,8.20
2018-03-06T14:00:10.363Z,8.10
2018-03-06T14:02:36.442Z,8.10
2018-03-06T14:05:02.489Z,8.10
2018-03-06T14:07:28.566Z,8.20
2018-03-06T14:09:54.661Z,8.20
2018-03-06T14:12:21.492Z,8.00
2018-03-06T14:14:47.574Z,8.00
2018-03-06T14:17:13.622Z,8.10
2018-03-06T14:19:40.463Z,8.20
2018-03-06T14:22:07.273Z,8.40
2018-03-06T14:24:33.313Z,8.40
2018-03-06T14:26:59.502Z,8.40
2018-03-06T14:29:25.546Z,8.40
2018-03-06T14:31:51.586Z,8.40
2018-03-06T14:34:17.654Z,8.40
2018-03-06T14:36:43.689Z,8.50
2018-03-06T14:39:09.787Z,8.50
2018-03-06T14:41:36.574Z,8.60
2018-03-06T14:44:02.615Z,8.60
2018-03-06T14:46:28.700Z,8.50
2018-03-06T14:48:55.499Z,8.70
2018-03-06T14:51:21.580Z,8.70
2018-03-06T14:53:47.642Z,8.60
2018-03-06T14:56:13.779Z,8.50
2018-03-06T14:58:40.658Z,8.50
2018-03-06T15:01:06.771Z,8.50
2018-03-06T15:03:32.867Z,8.50
2018-03-06T15:05:58.943Z,8.40
2018-03-06T15:08:25.789Z,8.40
2018-03-06T15:10:52.597Z,8.20
2018-03-06T15:13:18.703Z,8.20
2018-03-06T15:15:44.767Z,8.20
2018-03-06T15:18:10.874Z,8.00
2018-03-06T15:20:36.951Z,7.90
2018-03-06T15:23:03.045Z,7.90
2018-03-06T15:25:29.850Z,7.70
2018-03-06T15:27:55.933Z,7.70
2018-03-06T15:30:22.839Z,7.70
2018-03-06T15:32:48.897Z,7.70
2018-03-06T15:35:14.949Z,7.70
2018-03-06T15:37:41.030Z,7.60
2018-03-06T15:40:07.119Z,7.50
2018-03-06T15:42:33.234Z,7.30
2018-03-06T15:44:59.336Z,7.30
2018-03-06T15:47:25.420Z,7.10
2018-03-06T15:49:51.479Z,7.20
2018-03-06T15:52:18.307Z,7.00
2018-03-06T15:54:44.358Z,7.00
2018-03-06T15:57:10.410Z,6.90
2018-03-06T15:59:37.259Z,6.50
2018-03-06T16:02:03.343Z,6.50
2018-03-06T16:04:29.454Z,6.50
2018-03-06T16:06:56.299Z,6.20
2018-03-06T16:09:22.375Z,6.10
2018-03-06T16:11:48.419Z,6.10
2018-03-06T16:14:14.490Z,6.10
2018-03-06T16:16:40.537Z,6.00
2018-03-06T16:19:06.604Z,5.90
2018-03-06T16:21:32.661Z,5.80
2018-03-06T16:23:58.717Z,5.70
2018-03-06T16:26:24.788Z,5.60
2018-03-06T16:28:50.934Z,5.50
2018-03-06T16:31:17.009Z,5.40
2018-03-06T16:33:43.089Z,5.30
2018-03-06T16:36:09.126Z,5.20
2018-03-06T16:38:35.194Z,5.10
2018-03-06T16:41:02.022Z,4.90
2018-03-06T16:43:28.110Z,4.90
2018-03-06T16:45:54.215Z,4.90
2018-03-06T16:48:21.025Z,4.70
2018-03-06T16:50:47.102Z,4.60
2018-03-06T16:53:13.135Z,4.50
2018-03-06T16:55:39.281Z,4.50
2018-03-06T16:58:06.130Z,4.30
2018-03-06T17:00:32.193Z,4.30
2018-03-06T17:02:58.315Z,4.20
2018-03-06T17:05:25.157Z,4.00
2018-03-06T17:07:51.193Z,4.00
2018-03-06T17:10:17.357Z,3.90
2018-03-06T17:12:44.194Z,3.70
2018-03-06T17:15:10.359Z,3.70
2018-03-06T17:17:36.462Z,3.60
2018-03-06T17:20:02.627Z,3.50
2018-03-06T17:22:29.444Z,3.30
2018-03-06T17:24:55.599Z,3.20
2018-03-06T17:27:21.675Z,3.20
2018-03-06T17:29:47.769Z,3.10
2018-03-06T17:32:13.958Z,3.00
2018-03-06T17:34:40.018Z,2.90
2018-03-06T17:37:06.123Z,2.80
2018-03-06T17:39:32.197Z,2.80
2018-03-06T17:41:58.299Z,2.80
2018-03-06T17:44:24.432Z,2.70
2018-03-06T17:46:51.197Z,2.60
2018-03-06T17:49:17.338Z,2.50
2018-03-06T17:51:43.395Z,2.50
2018-03-06T17:54:09.466Z,2.40
2018-03-06T17:56:35.534Z,2.30
2018-03-06T17:59:02.358Z,2.20
2018-03-06T18:01:28.412Z,2.20
2018-03-06T18:03:55.337Z,2.10
2018-03-06T18:06:21.374Z,2.10
2018-03-06T18:08:47.433Z,2.10
2018-03-06T18:11:13.572Z,2.00
2018-03-06T18:13:39.646Z,2.00
2018-03-06T18:16:05.696Z,1.90
2018-03-06T18:18:31.768Z,1.90
2018-03-06T18:20:57.944Z,1.80
2018-03-06T18:23:24.746Z,1.70
2018-03-06T18:25:50.815Z,1.70
2018-03-06T18:28:16.875Z,1.70
2018-03-06T18:30:43.685Z,1.70
2018-03-06T18:33:09.763Z,1.60
2018-03-06T18:35:36.552Z,1.60
2018-03-06T18:38:02.669Z,1.50
2018-03-06T18:40:28.702Z,1.50
2018-03-06T18:42:54.842Z,1.40
2018-03-06T18:45:20.882Z,1.40
2018-03-06T18:47:46.977Z,1.30
2018-03-06T18:50:25.328Z,1.30
2018-03-06T18:52:52.135Z,1.20
2018-03-06T18:55:18.203Z,1.20
2018-03-06T18:57:44.296Z,1.10
2018-03-06T19:03:36.183Z,0.90
2018-03-06T19:06:14.642Z,0.90
2018-03-06T19:08:40.685Z,0.80
2018-03-06T19:11:06.746Z,0.80
2018-03-06T19:13:33.563Z,0.70
2018-03-06T19:15:59.662Z,0.70
2018-03-06T19:18:25.790Z,0.70
2018-03-06T19:20:51.914Z,0.70
2018-03-06T19:23:18.713Z,0.60
2018-03-06T19:25:44.836Z,0.50
2018-03-06T19:28:10.878Z,0.60
2018-03-06T19:30:36.950Z,0.50
2018-03-06T19:33:03.031Z,0.50
2018-03-06T19:35:29.160Z,0.40
2018-03-06T19:37:55.261Z,0.40
2018-03-06T19:40:21.331Z,0.40
2018-03-06T19:42:48.111Z,0.50
2018-03-06T19:45:14.324Z,0.40
2018-03-06T19:47:41.105Z,0.50
2018-03-06T19:50:07.144Z,0.50
2018-03-06T19:52:33.208Z,0.50
2018-03-06T19:54:59.267Z,0.50
2018-03-06T19:57:25.437Z,0.50
2018-03-06T19:59:51.553Z,0.60
2018-03-06T20:02:18.409Z,0.70
2018-03-06T20:04:45.293Z,0.70
2018-03-06T20:07:11.472Z,0.60
2018-03-06T20:09:37.559Z,0.60
2018-03-06T20:12:03.732Z,0.70
2018-03-06T20:14:35.910Z,0.70
2018-03-06T20:17:02.052Z,0.70
2018-03-06T20:19:34.190Z,0.80
2018-03-06T20:22:01.010Z,0.80
2018-03-06T20:24:33.342Z,0.80
2018-03-06T20:26:59.406Z,0.80
2018-03-06T20:29:25.459Z,0.80
2018-03-06T20:31:57.756Z,0.80
2018-03-06T20:34:23.801Z,0.90
2018-03-06T20:36:49.871Z,0.90
2018-03-06T20:39:22.051Z,0.80
2018-03-06T20:41:48.108Z,0.90
2018-03-06T20:44:14.199Z,0.90
2018-03-06T20:46:46.480Z,0.90
2018-03-06T20:49:12.555Z,0.90
2018-03-06T20:51:38.671Z,0.90
2018-03-06T20:54:11.578Z,0.90
2018-03-06T20:56:38.407Z,0.80
2018-03-06T20:59:04.493Z,0.80
2018-03-06T21:01:30.541Z,0.80
2018-03-06T21:03:56.594Z,0.80
2018-03-06T21:06:22.826Z,0.80
2018-03-06T21:08:48.878Z,0.80
2018-03-06T21:11:14.956Z,0.80
2018-03-06T21:13:41.787Z,0.70
2018-03-06T21:16:07.880Z,0.70
2018-03-06T21:18:33.953Z,0.70
2018-03-06T21:21:00.019Z,0.70
2018-03-06T21:23:26.886Z,0.60
2018-03-06T21:25:53.686Z,0.60
2018-03-06T21:28:19.776Z,0.60
2018-03-06T21:30:45.831Z,0.60
2018-03-06T21:33:11.921Z,0.60
2018-03-06T21:35:38.024Z,0.60
2018-03-06T21:38:04.125Z,0.60
2018-03-06T21:40:30.930Z,0.50
2018-03-06T21:42:56.989Z,0.50
2018-03-06T21:45:23.042Z,0.50
2018-03-06T21:47:49.845Z,0.40
2018-03-06T21:50:15.902Z,0.40
2018-03-06T21:52:41.984Z,0.40
2018-03-06T21:55:08.821Z,0.30
2018-03-06T21:57:34.897Z,0.30
2018-03-06T22:00:00.938Z,0.30
2018-03-06T22:02:26.994Z,0.30
2018-03-06T22:04:53.087Z,0.30
2018-03-06T22:07:19.134Z,0.30
2018-03-06T22:09:45.194Z,0.30
2018-03-06T22:12:11.241Z,0.30
2018-03-06T22:14:37.305Z,0.20
2018-03-06T22:17:03.555Z,0.30
2018-03-06T22:19:29.656Z,0.30
2018-03-06T22:21:55.718Z,0.30
2018-03-06T22:24:21.757Z,0.30
2018-03-06T22:26:47.894Z,0.30
2018-03-06T22:29:13.980Z,0.20
2018-03-06T22:31:40.070Z,0.20
2018-03-06T22:34:06.105Z,0.20
2018-03-06T22:36:32.215Z,0.20
2018-03-06T22:38:58.250Z,0.20
2018-03-06T22:41:24.286Z,0.20
2018-03-06T22:43:50.351Z,0.10
2018-03-06T22:46:16.415Z,0.10
2018-03-06T22:48:43.195Z,0.10
2018-03-06T22:51:09.353Z,0.00
2018-03-06T22:53:35.439Z,0.00
2018-03-06T22:56:02.214Z,-0.20
2018-03-06T22:58:28.307Z,-0.20
2018-03-06T23:00:54.419Z,-0.20
2018-03-06T23:03:20.566Z,-0.30
2018-03-06T23:05:46.769Z,-0.30
2018-03-06T23:08:12.817Z,-0.30
2018-03-06T23:10:38.958Z,-0.40
2018-03-06T23:13:05.101Z,-0.50
2018-03-06T23:15:31.278Z,-0.50
2018-03-06T23:17:57.399Z,-0.40
2018-03-06T23:20:23.473Z,-0.40
2018-03-06T23:22:50.327Z,-0.30
2018-03-06T23:25:16.393Z,-0.30
2018-03-06T23:27:42.510Z,-0.10
2018-03-06T23:30:08.661Z,0.10
2018-03-06T23:32:35.542Z,0.30
2018-03-06T23:35:01.654Z,0.30
2018-03-06T23:37:28.502Z,0.30
2018-03-06T23:39:55.338Z,0.40
2018-03-06T23:42:21.447Z,0.30
2018-03-06T23:44:47.571Z,0.50
2018-03-06T23:47:13.788Z,0.70
2018-03-06T23:49:40.602Z,0.90
2018-03-06T23:52:06.709Z,0.90
2018-03-06T23:54:32.814Z,1.00
2018-03-06T23:56:59.729Z,1.10
2018-03-06T23:59:25.873Z,1.10
